Rostock, Germany

10:58 AM CET on March 03, 2015 (GMT +0100)
- | Change Station
CLOSE
Current Station
Personal Weather Station
Location: Rostock, MECKLENBURG-VORPOMMERN
Elevation: 7 ft
Nearby Weather Stations

Elev 7 ft 54.12 °N, 12.04 °E | Updated 15 seconds ago

Mostly Cloudy
Mostly Cloudy
41.5 °F
Feels Like 35 °F
N
12.1
Wind Variable Wind from WNW
Gusts 12.3 mph

Today
High -- | Low -- °F
--% Chance of Precip.
Yesterday
High -- | Low -- °F
Precip. -- in
6:56 AM 5:51 PM
Waxing Gibbous, 95% visible
Pressure 29.92 in
Visibility 6.2 miles
Clouds Mostly Cloudy 1600 ft
Windchill 35 °F
Dew Point 32 °F
Humidity 70%
Rainfall 0.00 in
Snow Depth Not available.
UV 1.0 out of 12
Pollen Not available.
Air Quality Not available.
Flu Activity Not available.
METAR EDOP 030950Z 25019KT 9999 BKN016 04/01 Q1013

More Conditions Fewer Conditions

Pressure 29.92 in
Visibility 6.2 miles
Clouds Mostly Cloudy 1600 ft
Windchill 35 °F
Dew Point 32 °F
Humidity 70%
Rainfall 0.00 in
Snow Depth Not available.
UV 1.0 out of 12
Pollen Not available.
Air Quality Not available.
Flu Activity Not available.
METAR EDOP 030950Z 25019KT 9999 BKN016 04/01 Q1013

More Conditions Fewer Conditions

10-Day Weather Forecast

Almanac

Astronomy

Mar. 03, 2015 Rise Set
Actual Time
Civil Twilight
Nautical Twilight
Astronomical Twilight
Moon
Length of Visible Light
Length of Day
Tomorrow will be .
, % of the Moon is Illuminated

Today's Extremes

Country Highs Country Lows

Community

WunderPhotos

Upload Photos

1,802,075 photos uploaded!

WunderBlogs® & News

Nearby

Air Quality

  Air Quality AQ Index Pollutant
Not available.

Snow Depth

Station Depth Elevation

Earthquake Activity

City Distance Mag. Time & Date
Minimum magnitude displayed is 2.5.

Coastal Water Temperatures

Place Temperature

Nearby Weather Stations